createdAt,value
2023-01-22T00:00:06.099Z,99789.23
2023-01-22T00:02:58.951Z,99787.00
2023-01-22T00:05:25.464Z,99791.00
2023-01-22T00:07:52.061Z,99788.37
2023-01-22T00:10:18.949Z,99789.90
2023-01-22T00:12:45.625Z,99790.44
2023-01-22T00:15:12.108Z,99795.44
2023-01-22T00:17:38.783Z,99793.89
2023-01-22T00:20:06.379Z,99793.96
2023-01-22T00:22:32.844Z,99806.11
2023-01-22T00:24:59.351Z,99806.95
2023-01-22T00:27:25.838Z,99807.96
2023-01-22T00:29:52.307Z,99816.27
2023-01-22T00:32:18.906Z,99820.40
2023-01-22T00:34:51.492Z,99808.28
2023-01-22T00:37:19.582Z,99795.98
2023-01-22T00:39:46.400Z,99795.52
2023-01-22T00:42:12.953Z,99804.04
2023-01-22T00:44:39.478Z,99810.45
2023-01-22T00:47:05.985Z,99818.92
2023-01-22T00:49:32.459Z,99819.40
2023-01-22T00:51:58.983Z,99808.98
2023-01-22T01:06:53.841Z,99818.15
2023-01-22T01:09:21.802Z,99826.76
2023-01-22T01:11:49.663Z,99830.59
2023-01-22T01:14:18.560Z,99828.16
2023-01-22T01:16:46.502Z,99828.67
2023-01-22T01:19:16.330Z,99831.13
2023-01-22T01:21:44.405Z,99832.88
2023-01-22T01:24:12.330Z,99837.08
2023-01-22T01:26:41.391Z,99833.27
2023-01-22T01:29:11.691Z,99832.09
2023-01-22T01:31:39.749Z,99835.40
2023-01-22T01:34:09.347Z,99843.18
2023-01-22T01:36:52.528Z,99845.61
2023-01-22T01:39:20.525Z,99854.98
2023-01-22T01:41:48.871Z,99856.89
2023-01-22T01:44:18.030Z,99850.14
2023-01-22T01:46:56.090Z,99850.48
2023-01-22T01:49:32.308Z,99849.11
2023-01-22T01:52:04.426Z,99849.63
2023-01-22T01:54:32.878Z,99849.13
2023-01-22T01:57:08.567Z,99850.67
2023-01-22T01:59:38.488Z,99857.62
2023-01-22T02:02:06.760Z,99862.80
2023-01-22T02:04:35.150Z,99862.48
2023-01-22T02:07:05.592Z,99861.95
2023-01-22T02:09:33.667Z,99863.85
2023-01-22T02:12:02.493Z,99865.95
2023-01-22T02:14:34.939Z,99871.67
2023-01-22T02:17:08.698Z,99874.94
2023-01-22T02:19:36.563Z,99879.63
2023-01-22T02:22:15.360Z,99879.13
2023-01-22T02:24:43.418Z,99885.02
2023-01-22T02:27:11.800Z,99888.66
2023-01-22T02:29:40.525Z,99890.74
2023-01-22T02:32:11.209Z,99887.10
2023-01-22T02:34:39.598Z,99886.40
2023-01-22T02:37:07.954Z,99886.39
2023-01-22T02:39:35.887Z,99884.85
2023-01-22T02:42:06.604Z,99887.98
2023-01-22T02:44:34.663Z,99887.98
2023-01-22T02:47:02.608Z,99889.20
2023-01-22T02:49:30.657Z,99890.39
2023-01-22T02:51:58.728Z,99892.13
2023-01-22T02:54:26.819Z,99896.11
2023-01-22T02:56:56.126Z,99900.08
2023-01-22T02:59:24.977Z,99900.58
2023-01-22T03:01:53.011Z,99902.65
2023-01-22T03:04:21.018Z,99904.73
2023-01-22T03:06:49.325Z,99902.81
2023-01-22T03:09:17.916Z,99907.30
2023-01-22T03:11:47.211Z,99907.29
2023-01-22T03:14:42.073Z,99906.77
2023-01-22T03:17:28.346Z,99908.85
2023-01-22T03:20:15.463Z,99909.58
2023-01-22T03:22:43.432Z,99909.23
2023-01-22T03:25:11.319Z,99906.66
2023-01-22T03:27:59.281Z,99906.83
2023-01-22T03:30:27.533Z,99913.06
2023-01-22T03:32:56.870Z,99914.45
2023-01-22T03:35:25.255Z,99915.84
2023-01-22T03:38:04.950Z,99917.23
2023-01-22T03:40:33.030Z,99915.66
2023-01-22T03:43:01.549Z,99913.74
2023-01-22T03:45:29.428Z,99915.64
2023-01-22T03:47:57.399Z,99914.07
2023-01-22T03:50:30.234Z,99913.72
2023-01-22T03:52:58.554Z,99918.77
2023-01-22T03:55:26.677Z,99920.50
2023-01-22T03:57:55.029Z,99918.94
2023-01-22T04:00:23.134Z,99923.45
2023-01-22T04:02:53.634Z,99928.12
2023-01-22T04:05:22.859Z,99924.14
2023-01-22T04:07:51.039Z,99925.54
2023-01-22T04:10:24.306Z,99924.66
2023-01-22T04:12:52.527Z,99931.59
2023-01-22T04:15:22.749Z,99933.84
2023-01-22T04:17:51.673Z,99936.09
2023-01-22T04:20:40.476Z,99938.17
2023-01-22T04:23:27.195Z,99938.18
2023-01-22T04:25:55.406Z,99939.59
2023-01-22T04:28:23.404Z,99937.17
2023-01-22T04:30:55.325Z,99938.03
2023-01-22T04:33:34.095Z,99940.98
2023-01-22T04:36:29.131Z,99945.31
2023-01-22T04:38:57.291Z,99945.67
2023-01-22T04:41:25.252Z,99948.45
2023-01-22T04:43:53.494Z,99951.92
2023-01-22T04:46:24.636Z,99954.35
2023-01-22T04:48:53.466Z,99950.55
2023-01-22T04:51:21.476Z,99953.50
2023-01-22T04:53:49.429Z,99952.64
2023-01-22T04:56:18.390Z,99950.22
2023-01-22T04:58:46.649Z,99946.41
2023-01-22T05:01:16.168Z,99947.11
2023-01-22T05:03:45.013Z,99946.23
2023-01-22T05:06:13.003Z,99950.23
2023-01-22T05:08:40.965Z,99958.73
2023-01-22T05:11:11.346Z,99961.86
2023-01-22T05:14:02.140Z,99963.77
2023-01-22T05:16:30.461Z,99967.06
2023-01-22T05:18:58.341Z,99973.48
2023-01-22T05:21:26.668Z,99971.94
2023-01-22T05:23:54.922Z,99971.23
2023-01-22T05:26:24.412Z,99973.84
2023-01-22T05:29:00.680Z,99986.49
2023-01-22T05:31:45.516Z,99991.88
2023-01-22T05:34:30.417Z,99995.00
2023-01-22T05:36:58.685Z,99999.84
2023-01-22T05:39:28.443Z,100009.02
2023-01-22T05:41:58.546Z,100016.14
2023-01-22T05:44:26.850Z,100014.06
2023-01-22T05:46:56.144Z,100011.12
2023-01-22T05:49:53.490Z,100014.94
2023-01-22T05:52:22.383Z,100015.80
2023-01-22T05:54:50.249Z,100016.83
2023-01-22T05:57:18.509Z,100021.86
2023-01-22T05:59:46.403Z,100023.94
2023-01-22T06:02:15.246Z,100023.42
2023-01-22T06:04:44.969Z,100023.08
2023-01-22T06:07:25.548Z,100021.70
2023-01-22T06:09:53.768Z,100019.61
2023-01-22T06:12:21.953Z,100020.33
2023-01-22T06:14:50.978Z,100023.62
2023-01-22T06:17:18.928Z,100033.84
2023-01-22T06:19:54.315Z,100036.80
2023-01-22T06:22:22.716Z,100034.36
2023-01-22T06:24:54.865Z,100035.05
2023-01-22T06:27:24.462Z,100035.58
2023-01-22T06:29:56.095Z,100038.52
2023-01-22T06:32:24.168Z,100043.71
2023-01-22T06:34:52.516Z,100044.42
2023-01-22T06:37:22.136Z,100050.32
2023-01-22T06:39:50.553Z,100053.08
2023-01-22T06:42:22.881Z,100052.05
2023-01-22T06:44:52.004Z,100052.06
2023-01-22T06:47:21.138Z,100051.38
2023-01-22T06:49:49.048Z,100056.05
2023-01-22T06:52:17.160Z,100063.85
2023-01-22T06:54:45.129Z,100069.04
2023-01-22T06:57:13.517Z,100068.35
2023-01-22T06:59:41.889Z,100068.87
2023-01-22T07:02:16.661Z,100069.39
2023-01-22T07:04:44.838Z,100076.14
2023-01-22T07:07:13.734Z,100078.05
2023-01-22T07:09:41.789Z,100078.58
2023-01-22T07:12:09.737Z,100084.27
2023-01-22T07:14:37.898Z,100085.66
2023-01-22T07:17:06.062Z,100088.08
2023-01-22T07:19:34.030Z,100092.09
2023-01-22T07:22:01.895Z,100094.15
2023-01-22T07:24:29.805Z,100099.88
2023-01-22T07:26:57.685Z,100104.89
2023-01-22T07:29:25.555Z,100105.23
2023-01-22T07:31:53.508Z,100107.15
2023-01-22T07:34:21.431Z,100104.90
2023-01-22T07:36:49.390Z,100107.85
2023-01-22T07:39:17.515Z,100111.66
2023-01-22T07:41:45.465Z,100113.40
2023-01-22T07:44:13.611Z,100113.05
2023-01-22T07:46:41.649Z,100112.53
2023-01-22T07:49:10.971Z,100110.46
2023-01-22T07:51:38.840Z,100112.19
2023-01-22T07:54:07.071Z,100117.20
2023-01-22T07:56:34.954Z,100121.70
2023-01-22T07:59:02.933Z,100123.27
2023-01-22T08:01:30.920Z,100123.61
2023-01-22T08:03:58.992Z,100122.22
2023-01-22T08:06:26.930Z,100122.91
2023-01-22T08:08:54.803Z,100130.02
2023-01-22T08:11:22.760Z,100125.51
2023-01-22T08:13:50.619Z,100125.34
2023-01-22T08:16:18.549Z,100122.02
2023-01-22T08:18:46.569Z,100122.55
2023-01-22T08:21:14.510Z,100120.48
2023-01-22T08:23:45.267Z,100115.61
2023-01-22T08:26:14.702Z,100120.80
2023-01-22T08:28:42.621Z,100121.14
2023-01-22T08:31:19.355Z,100125.83
2023-01-22T08:33:54.573Z,100133.64
2023-01-22T08:36:22.540Z,100131.05
2023-01-22T08:38:50.559Z,100137.29
2023-01-22T08:41:18.523Z,100139.03
2023-01-22T08:43:46.550Z,100140.41
2023-01-22T08:46:14.726Z,100141.09
2023-01-22T08:48:44.418Z,100142.65
2023-01-22T08:51:12.604Z,100150.95
2023-01-22T08:53:40.607Z,100151.64
2023-01-22T08:56:08.911Z,100144.50
2023-01-22T08:58:37.035Z,100150.92
2023-01-22T09:01:05.009Z,100150.23
2023-01-22T09:03:32.969Z,100158.20
2023-01-22T09:06:03.563Z,100162.17
2023-01-22T09:08:31.499Z,100171.55
2023-01-22T09:10:59.397Z,100173.45
2023-01-22T09:13:27.375Z,100180.39
2023-01-22T09:15:59.047Z,100178.66
2023-01-22T09:18:27.135Z,100174.15
2023-01-22T09:20:55.172Z,100170.86
2023-01-22T09:23:23.083Z,100176.23
2023-01-22T09:25:51.109Z,100182.33
2023-01-22T09:28:19.015Z,100185.61
2023-01-22T09:30:47.081Z,100191.34
2023-01-22T09:33:15.210Z,100192.38
2023-01-22T09:35:43.081Z,100195.69
2023-01-22T09:38:14.288Z,100200.72
2023-01-22T09:40:51.167Z,100198.98
2023-01-22T09:43:29.076Z,100194.98
2023-01-22T09:46:00.799Z,100195.67
2023-01-22T09:48:40.383Z,100197.05
2023-01-22T09:51:13.196Z,100198.45
2023-01-22T09:53:43.241Z,100191.34
2023-01-22T09:56:21.173Z,100195.70
2023-01-22T09:58:51.342Z,100195.70
2023-01-22T10:01:21.136Z,100193.63
2023-01-22T10:03:54.883Z,100199.53
2023-01-22T10:06:25.218Z,100188.08
2023-01-22T10:09:16.793Z,100180.97
2023-01-22T10:11:49.543Z,100176.11
2023-01-22T10:14:21.101Z,100173.85
2023-01-22T10:16:49.387Z,100175.41
2023-01-22T10:19:23.410Z,100171.23
2023-01-22T10:22:01.001Z,100165.50
2023-01-22T10:24:30.277Z,100168.42
2023-01-22T10:27:11.679Z,100173.23
2023-01-22T10:29:40.100Z,100173.72
2023-01-22T10:32:27.280Z,100177.68
2023-01-22T10:35:03.473Z,100176.11
2023-01-22T10:37:43.419Z,100170.57
2023-01-22T10:40:23.753Z,100171.98
2023-01-22T10:43:11.303Z,100176.19
2023-01-22T10:45:51.121Z,100169.98
2023-01-22T10:48:19.858Z,100166.88
2023-01-22T10:51:00.803Z,100173.33
2023-01-22T10:53:36.248Z,100180.09
2023-01-22T10:56:12.447Z,100183.90
2023-01-22T10:58:48.030Z,100187.88
2023-01-22T11:01:28.231Z,100185.63
2023-01-22T11:03:56.168Z,100182.65
2023-01-22T11:06:44.703Z,100186.80
2023-01-22T11:09:33.419Z,100186.80
2023-01-22T11:12:08.228Z,100186.80
2023-01-22T11:14:38.382Z,100189.58
2023-01-22T11:17:16.634Z,100195.47
2023-01-22T11:19:57.135Z,100191.83
2023-01-22T11:22:39.606Z,100188.01
2023-01-22T11:25:11.463Z,100187.67
2023-01-22T11:28:03.386Z,100182.80
2023-01-22T11:30:55.751Z,100178.82
2023-01-22T11:33:26.692Z,100180.56
2023-01-22T11:36:09.862Z,100181.09
2023-01-22T11:38:51.233Z,100180.75
2023-01-22T11:41:28.451Z,100181.11
2023-01-22T11:44:02.423Z,100181.11
2023-01-22T11:46:48.083Z,100177.98
2023-01-22T11:49:38.878Z,100178.67
2023-01-22T11:52:18.930Z,100177.29
2023-01-22T11:55:18.285Z,100177.97
2023-01-22T11:58:13.228Z,100173.64
2023-01-22T12:00:53.423Z,100173.64
2023-01-22T12:03:40.443Z,100178.67
2023-01-22T12:06:17.639Z,100179.71
2023-01-22T12:09:04.181Z,100179.36
2023-01-22T12:11:38.085Z,100179.70
2023-01-22T12:14:10.774Z,100178.66
2023-01-22T12:17:17.830Z,100180.41
2023-01-22T12:20:17.400Z,100184.91
2023-01-22T12:22:52.398Z,100181.45
2023-01-22T12:26:09.849Z,100175.88
2023-01-22T12:28:46.166Z,100178.65
2023-01-22T12:31:26.503Z,100176.73
2023-01-22T12:33:54.527Z,100179.66
2023-01-22T12:36:25.721Z,100178.80
2023-01-22T12:39:02.724Z,100182.27
2023-01-22T12:41:57.000Z,100175.16
2023-01-22T12:44:54.946Z,100172.39
2023-01-22T12:47:45.963Z,100166.83
2023-01-22T12:50:23.981Z,100163.70
2023-01-22T12:53:03.504Z,100164.55
2023-01-22T12:55:43.924Z,100165.77
2023-01-22T12:58:23.392Z,100173.43
2023-01-22T13:01:06.711Z,100175.01
2023-01-22T13:03:36.244Z,100173.78
2023-01-22T13:06:18.936Z,100173.80
2023-01-22T13:08:47.093Z,100173.64
2023-01-22T13:11:28.150Z,100176.94
2023-01-22T13:14:14.860Z,100174.34
2023-01-22T13:16:55.276Z,100172.27
2023-01-22T13:19:27.494Z,100174.19
2023-01-22T13:22:03.007Z,100177.84
2023-01-22T13:24:30.914Z,100180.27
2023-01-22T13:27:01.740Z,100185.47
2023-01-22T13:29:37.151Z,100185.29
2023-01-22T13:32:16.382Z,100185.64
2023-01-22T13:34:44.353Z,100187.38
2023-01-22T13:37:26.332Z,100187.73
2023-01-22T13:39:54.436Z,100189.98
2023-01-22T13:42:24.816Z,100191.72
2023-01-22T13:44:53.127Z,100190.34
2023-01-22T13:47:35.458Z,100194.48
2023-01-22T13:50:03.899Z,100200.73
2023-01-22T13:52:33.586Z,100197.44
2023-01-22T13:55:06.922Z,100196.39
2023-01-22T13:57:34.872Z,100199.67
2023-01-22T14:00:04.279Z,100204.89
2023-01-22T14:02:35.616Z,100209.39
2023-01-22T14:05:04.180Z,100215.27
2023-01-22T14:07:34.981Z,100222.73
2023-01-22T14:10:24.642Z,100227.61
2023-01-22T14:13:04.914Z,100236.27
2023-01-22T14:15:33.840Z,100234.89
2023-01-22T14:18:13.471Z,100234.88
2023-01-22T14:20:42.716Z,100237.48
2023-01-22T14:23:11.282Z,100238.86
2023-01-22T14:25:41.731Z,100237.65
2023-01-22T14:28:10.099Z,100238.68
2023-01-22T14:30:38.226Z,100242.85
2023-01-22T14:33:06.279Z,100242.00
2023-01-22T14:35:34.190Z,100239.20
2023-01-22T14:38:02.076Z,100244.25
2023-01-22T14:40:30.499Z,100248.42
2023-01-22T14:43:01.028Z,100250.33
2023-01-22T14:45:29.498Z,100251.89
2023-01-22T14:47:57.399Z,100247.73
2023-01-22T14:50:25.372Z,100254.15
2023-01-22T14:52:53.779Z,100257.27
2023-01-22T14:55:21.969Z,100258.67
2023-01-22T14:57:50.001Z,100256.77
2023-01-22T15:00:19.762Z,100259.69
2023-01-22T15:02:48.182Z,100264.02
2023-01-22T15:05:16.283Z,100270.80
2023-01-22T15:07:44.249Z,100273.75
2023-01-22T15:10:12.689Z,100275.66
2023-01-22T15:12:40.699Z,100278.96
2023-01-22T15:15:09.193Z,100277.57
2023-01-22T15:17:37.271Z,100282.77
2023-01-22T15:20:05.659Z,100289.02
2023-01-22T15:22:33.589Z,100288.31
2023-01-22T15:25:01.581Z,100287.64
2023-01-22T15:27:29.611Z,100285.20
2023-01-22T15:29:57.734Z,100290.58
2023-01-22T15:32:25.750Z,100291.80
2023-01-22T15:34:53.737Z,100294.92
2023-01-22T15:37:21.615Z,100297.86
2023-01-22T15:39:49.919Z,100302.70
2023-01-22T15:42:17.925Z,100304.95
2023-01-22T15:44:45.934Z,100303.91
2023-01-22T15:47:14.627Z,100305.47
2023-01-22T15:49:42.593Z,100305.64
2023-01-22T15:52:10.461Z,100306.16
2023-01-22T15:54:38.400Z,100308.95
2023-01-22T15:57:06.312Z,100305.83
2023-01-22T15:59:34.412Z,100311.55
2023-01-22T16:02:02.402Z,100316.23
2023-01-22T16:04:30.407Z,100319.52
2023-01-22T16:06:58.456Z,100323.87
2023-01-22T16:09:26.468Z,100323.35
2023-01-22T16:11:54.636Z,100326.46
2023-01-22T16:14:22.589Z,100333.77
2023-01-22T16:16:50.543Z,100332.73
2023-01-22T16:19:18.515Z,100332.20
2023-01-22T16:21:47.745Z,100334.11
2023-01-22T16:24:15.829Z,100338.97
2023-01-22T16:26:43.764Z,100338.29
2023-01-22T16:29:11.710Z,100338.97
2023-01-22T16:31:39.653Z,100345.05
2023-01-22T16:34:12.976Z,100346.09
2023-01-22T16:36:42.341Z,100348.52
2023-01-22T16:39:17.418Z,100352.69
2023-01-22T16:41:48.711Z,100352.85
2023-01-22T16:44:19.360Z,100353.02
2023-01-22T16:46:51.285Z,100350.08
2023-01-22T16:49:21.822Z,100353.55
2023-01-22T16:51:55.450Z,100359.27
2023-01-22T16:54:23.487Z,100359.29
2023-01-22T16:56:51.571Z,100358.41
2023-01-22T16:59:19.577Z,100362.23
2023-01-22T17:01:47.576Z,100366.91
2023-01-22T17:04:16.308Z,100368.46
2023-01-22T17:06:47.242Z,100369.68
2023-01-22T17:09:18.154Z,100368.82
2023-01-22T17:11:49.789Z,100370.38
2023-01-22T17:14:20.228Z,100373.86
2023-01-22T17:16:49.018Z,100373.16
2023-01-22T17:19:20.202Z,100375.06
2023-01-22T17:21:55.144Z,100376.64
2023-01-22T17:24:23.329Z,100376.62
2023-01-22T17:26:52.585Z,100380.09
2023-01-22T17:29:22.123Z,100381.48
2023-01-22T17:31:50.498Z,100384.43
2023-01-22T17:34:18.516Z,100389.13
2023-01-22T17:36:46.692Z,100392.08
2023-01-22T17:39:16.085Z,100395.20
2023-01-22T17:41:44.861Z,100394.67
2023-01-22T17:44:13.215Z,100393.81
2023-01-22T17:46:41.677Z,100398.48
2023-01-22T17:49:11.188Z,100400.93
2023-01-22T17:51:39.192Z,100405.26
2023-01-22T17:54:07.923Z,100406.48
2023-01-22T17:56:40.166Z,100409.42
2023-01-22T17:59:08.179Z,100411.86
2023-01-22T18:01:36.889Z,100415.84
2023-01-22T18:04:07.594Z,100415.48
2023-01-22T18:06:36.642Z,100415.84
2023-01-22T18:09:06.248Z,100413.23
2023-01-22T18:11:35.522Z,100410.64
2023-01-22T18:14:06.515Z,100412.38
2023-01-22T18:16:35.853Z,100413.42
2023-01-22T18:19:07.145Z,100414.63
2023-01-22T18:21:37.174Z,100414.98
2023-01-22T18:24:07.058Z,100415.31
2023-01-22T18:26:36.135Z,100417.92
2023-01-22T18:29:04.690Z,100424.69
2023-01-22T18:31:33.335Z,100430.06
2023-01-22T18:34:04.282Z,100432.84
2023-01-22T18:36:35.275Z,100437.53
2023-01-22T18:39:07.485Z,100438.92
2023-01-22T18:41:39.103Z,100447.95
2023-01-22T18:53:59.438Z,100458.21
2023-01-22T18:56:27.589Z,100464.28
2023-01-22T18:58:56.611Z,100464.98
2023-01-22T19:01:30.741Z,100468.63
2023-01-22T19:04:01.990Z,100472.63
2023-01-22T19:06:36.805Z,100471.92
2023-01-22T19:09:14.651Z,100471.75
2023-01-22T19:11:44.418Z,100471.92
2023-01-22T19:14:15.737Z,100473.14
2023-01-22T19:16:45.069Z,100475.73
2023-01-22T19:19:14.742Z,100476.94
2023-01-22T19:21:47.966Z,100482.33
2023-01-22T19:24:18.480Z,100480.42
2023-01-22T19:26:47.026Z,100480.77
2023-01-22T19:29:17.649Z,100481.80
2023-01-22T19:31:48.165Z,100485.27
2023-01-22T19:34:23.278Z,100484.23
2023-01-22T19:36:56.830Z,100486.84
2023-01-22T19:39:25.868Z,100488.74
2023-01-22T19:41:54.891Z,100491.52
2023-01-22T19:44:23.466Z,100497.43
2023-01-22T19:46:51.627Z,100499.69
2023-01-22T19:49:19.991Z,100501.42
2023-01-22T19:51:48.057Z,100502.29
2023-01-22T19:54:16.064Z,100505.57
2023-01-22T19:56:45.731Z,100507.63
2023-01-22T19:59:16.209Z,100513.53
2023-01-22T20:01:45.731Z,100518.21
2023-01-22T20:04:25.565Z,100521.49
2023-01-22T20:07:00.717Z,100521.48
2023-01-22T20:09:30.401Z,100527.05
2023-01-22T20:11:59.232Z,100524.61
2023-01-22T20:14:32.741Z,100525.48
2023-01-22T20:17:02.693Z,100525.66
2023-01-22T20:19:30.731Z,100526.55
2023-01-22T20:22:00.517Z,100526.38
2023-01-22T20:24:28.519Z,100525.50
2023-01-22T20:26:58.088Z,100524.30
2023-01-22T20:29:26.396Z,100524.48
2023-01-22T20:31:54.821Z,100525.02
2023-01-22T20:34:23.087Z,100522.06
2023-01-22T20:36:51.054Z,100519.12
2023-01-22T20:39:19.808Z,100520.86
2023-01-22T20:41:47.889Z,100523.81
2023-01-22T20:44:16.902Z,100520.84
2023-01-22T20:46:45.453Z,100521.31
2023-01-22T20:49:13.929Z,100522.84
2023-01-22T20:51:42.683Z,100525.42
2023-01-22T20:54:11.353Z,100530.42
2023-01-22T20:56:39.743Z,100524.16
2023-01-22T20:59:11.716Z,100524.34
2023-01-22T21:01:40.381Z,100526.75
2023-01-22T21:04:09.071Z,100526.20
2023-01-22T21:06:39.435Z,100533.31
2023-01-22T21:09:08.420Z,100540.44
2023-01-22T21:11:38.695Z,100542.86
2023-01-22T21:14:08.313Z,100544.96
2023-01-22T21:16:39.971Z,100549.15
2023-01-22T21:19:15.598Z,100553.33
2023-01-22T21:21:44.077Z,100554.21
2023-01-22T21:24:12.989Z,100559.61
2023-01-22T21:26:41.032Z,100564.66
2023-01-22T21:29:13.944Z,100571.08
2023-01-22T21:31:42.921Z,100571.95
2023-01-22T21:34:11.857Z,100574.04
2023-01-22T21:36:43.551Z,100577.68
2023-01-22T21:39:14.861Z,100581.52
2023-01-22T21:41:43.955Z,100583.95
2023-01-22T21:44:36.607Z,100579.96
2023-01-22T21:47:06.076Z,100578.23
2023-01-22T21:49:36.199Z,100577.54
2023-01-22T21:52:05.962Z,100579.98
2023-01-22T21:54:41.436Z,100586.75
2023-01-22T21:57:14.421Z,100589.73
2023-01-22T21:59:43.650Z,100595.61
2023-01-22T22:02:15.345Z,100596.29
2023-01-22T22:04:43.401Z,100594.38
2023-01-22T22:07:12.237Z,100596.80
2023-01-22T22:09:40.511Z,100597.50
2023-01-22T22:12:09.566Z,100596.99
2023-01-22T22:14:37.567Z,100597.35
2023-01-22T22:17:05.432Z,100599.27
2023-01-22T22:19:33.498Z,100606.04
2023-01-22T22:22:01.570Z,100609.70
2023-01-22T22:24:29.503Z,100611.45
2023-01-22T22:26:57.357Z,100615.96
2023-01-22T22:29:25.255Z,100614.38
2023-01-22T22:31:53.231Z,100617.48
2023-01-22T22:34:21.336Z,100619.39
2023-01-22T22:36:49.277Z,100622.66
2023-01-22T22:39:18.082Z,100624.56
2023-01-22T22:41:46.099Z,100627.84
2023-01-22T22:44:15.055Z,100633.71
2023-01-22T22:46:42.939Z,100642.34
2023-01-22T22:49:12.999Z,100649.09
2023-01-22T22:51:42.660Z,100656.88
2023-01-22T22:54:16.822Z,100659.49
2023-01-22T22:56:46.837Z,100663.34
2023-01-22T22:59:15.975Z,100667.83
2023-01-22T23:01:44.096Z,100666.98
2023-01-22T23:04:12.794Z,100666.84
2023-01-22T23:06:44.371Z,100663.72
2023-01-22T23:09:18.191Z,100665.11
2023-01-22T23:11:47.033Z,100668.04
2023-01-22T23:14:14.916Z,100666.80
2023-01-22T23:16:43.723Z,100668.88
2023-01-22T23:19:30.472Z,100669.74
2023-01-22T23:22:00.650Z,100673.90
2023-01-22T23:24:29.196Z,100671.30
2023-01-22T23:26:57.551Z,100665.04
2023-01-22T23:29:26.893Z,100660.48
2023-01-22T23:31:55.938Z,100662.20
2023-01-22T23:34:24.069Z,100664.63
2023-01-22T23:36:51.933Z,100666.54
2023-01-22T23:39:20.986Z,100671.27
2023-01-22T23:41:49.074Z,100670.77
2023-01-22T23:44:16.958Z,100672.70
2023-01-22T23:46:45.913Z,100677.76
2023-01-22T23:49:14.141Z,100680.20
2023-01-22T23:51:44.330Z,100678.46
2023-01-22T23:54:12.487Z,100678.97
2023-01-22T23:56:40.485Z,100685.20
2023-01-22T23:59:10.854Z,100688.80
